This is the latest recevied weather packets stored in our database for station/object N5CSU. If no packets are shown the sender has not sent any weather packets the latest 10 day(s).
| Time | Temp. | Humidity | Pressure | Rain* | Wind** | Luminosity | Snow |
|---|---|---|---|---|---|---|---|
| 1788404857 | 28.33° C | 72% | 1013.6 hPa | 0 mm | - | 0 W/m² | - |
| 1788404552 | 28.33° C | 73% | 1013.5 hPa | 0 mm | - | 0 W/m² | - |
| 1788404248 | 28.33° C | 72% | 1013.6 hPa | 0 mm | - | 0 W/m² | - |
| 1788403943 | 28.33° C | 73% | 1013.3 hPa | 0 mm | - | 0 W/m² | - |
| 1788403643 | 28.33° C | 73% | 1013.5 hPa | 0 mm | - | 0 W/m² | - |
| 1788403342 | 28.33° C | 73% | 1013.3 hPa | 0 mm | - | 0 W/m² | - |
| 1788403038 | 27.78° C | 74% | 1013.3 hPa | 0 mm | - | 0 W/m² | - |
| 1788402733 | 27.22° C | 78% | 1013.3 hPa | 0 mm | - | 0 W/m² | - |
| 1788402428 | 26.11° C | 87% | 1013.2 hPa | 0 mm | - | 0 W/m² | - |
| 1788402127 | 25.56° C | 86% | 1013.2 hPa | 0 mm | - | 0 W/m² | - |
| 1788401826 | 25.56° C | 88% | 1013.1 hPa | 0 mm | - | 0 W/m² | - |
| 1788401522 | 25° C | 89% | 1013.2 hPa | 0 mm | - | 0 W/m² | - |
| 1788401216 | 24.44° C | 94% | 1012.8 hPa | 0 mm | - | 0 W/m² | - |
| 1788400916 | 24.44° C | 96% | 1012.7 hPa | 0 mm | - | 0 W/m² | - |
| 1788400612 | 24.44° C | 97% | 1012.9 hPa | 0 mm | - | 0 W/m² | - |
| 1788400307 | 24.44° C | 98% | 1012.9 hPa | 0 mm | - | 0 W/m² | - |
| 1788400003 | 24.44° C | 98% | 1012.6 hPa | 0 mm | - | 0 W/m² | - |
| 1788399701 | 24.44° C | 98% | 1012.5 hPa | 0 mm | - | 0 W/m² | - |
| 1788399396 | 24.44° C | 98% | 1012.6 hPa | 0 mm | - | 0 W/m² | - |
| 1788399091 | 24.44° C | 98% | 1012.5 hPa | 0 mm | - | 0 W/m² | - |
| 1788398790 | 25° C | 98% | 1012.2 hPa | 0 mm | - | 0 W/m² | - |
| 1788398489 | 25.56° C | 98% | 1012.3 hPa | 0 mm | - | 0 W/m² | - |
| 1788398188 | 25.56° C | 98% | 1012.2 hPa | 0 mm | - | 0 W/m² | - |
| 1788397883 | 25.56° C | 98% | 1012.2 hPa | 0 mm | - | 0 W/m² | - |
| 1788397579 | 25.56° C | 98% | 1012 hPa | 0 mm | - | 0 W/m² | - |
* Rain latest hour (hover to see other rain measurements)
** Current wind speed in m/s (hover to see current wind gust speed)